sensor_id;sensor_type;location;lat;lon;timestamp;pressure;altitude;pressure_sealevel;temperature;humidity
36062;BME280;22123;52.412;20.970;2023-04-10T00:00:48;101519.88;;;3.88;100.00
36062;BME280;22123;52.412;20.970;2023-04-10T00:03:14;101515.72;;;3.83;100.00
36062;BME280;22123;52.412;20.970;2023-04-10T00:05:40;101521.72;;;3.87;100.00
36062;BME280;22123;52.412;20.970;2023-04-10T00:08:06;101494.09;;;3.75;100.00
36062;BME280;22123;52.412;20.970;2023-04-10T00:10:32;101489.81;;;3.73;100.00
36062;BME280;22123;52.412;20.970;2023-04-10T00:12:58;101480.53;;;3.65;100.00
36062;BME280;22123;52.412;20.970;2023-04-10T00:15:24;101524.06;;;3.92;100.00
36062;BME280;22123;52.412;20.970;2023-04-10T00:17:50;101496.84;;;3.74;100.00
36062;BME280;22123;52.412;20.970;2023-04-10T00:20:15;101523.09;;;3.93;100.00
36062;BME280;22123;52.412;20.970;2023-04-10T00:22:41;101523.00;;;3.94;100.00
36062;BME280;22123;52.412;20.970;2023-04-10T00:25:07;101518.72;;;3.92;100.00
36062;BME280;22123;52.412;20.970;2023-04-10T00:27:33;101496.13;;;3.85;100.00
36062;BME280;22123;52.412;20.970;2023-04-10T00:29:59;101508.59;;;3.84;100.00
36062;BME280;22123;52.412;20.970;2023-04-10T00:32:25;101516.91;;;3.92;100.00
36062;BME280;22123;52.412;20.970;2023-04-10T00:34:51;101475.66;;;3.72;100.00
36062;BME280;22123;52.412;20.970;2023-04-10T00:37:17;101463.78;;;3.63;100.00
36062;BME280;22123;52.412;20.970;2023-04-10T00:39:42;101498.56;;;3.88;100.00
36062;BME280;22123;52.412;20.970;2023-04-10T00:42:08;101465.84;;;3.73;100.00
36062;BME280;22123;52.412;20.970;2023-04-10T00:44:34;101490.25;;;3.92;100.00
36062;BME280;22123;52.412;20.970;2023-04-10T00:47:00;101507.16;;;4.06;100.00
36062;BME280;22123;52.412;20.970;2023-04-10T00:49:26;101504.28;;;4.09;100.00
36062;BME280;22123;52.412;20.970;2023-04-10T00:51:52;101505.44;;;4.05;100.00
36062;BME280;22123;52.412;20.970;2023-04-10T00:54:19;101487.50;;;3.94;100.00
36062;BME280;22123;52.412;20.970;2023-04-10T00:56:45;101494.66;;;3.93;100.00
36062;BME280;22123;52.412;20.970;2023-04-10T00:59:11;101512.75;;;4.01;100.00
36062;BME280;22123;52.412;20.970;2023-04-10T01:01:37;101503.31;;;3.97;100.00
36062;BME280;22123;52.412;20.970;2023-04-10T01:04:02;101514.47;;;4.02;100.00
36062;BME280;22123;52.412;20.970;2023-04-10T01:09:43;101554.72;;;4.25;100.00
36062;BME280;22123;52.412;20.970;2023-04-10T01:12:10;101547.47;;;4.27;100.00
36062;BME280;22123;52.412;20.970;2023-04-10T01:14:48;101548.63;;;4.23;100.00
36062;BME280;22123;52.412;20.970;2023-04-10T01:17:20;101506.13;;;3.94;100.00
36062;BME280;22123;52.412;20.970;2023-04-10T01:19:57;101498.69;;;3.86;100.00
36062;BME280;22123;52.412;20.970;2023-04-10T01:22:44;101544.97;;;4.11;100.00
36062;BME280;22123;52.412;20.970;2023-04-10T01:25:39;101520.66;;;3.90;100.00
36062;BME280;22123;52.412;20.970;2023-04-10T01:30:45;101480.91;;;3.46;100.00
36062;BME280;22123;52.412;20.970;2023-04-10T01:33:15;101502.41;;;3.56;100.00
36062;BME280;22123;52.412;20.970;2023-04-10T01:35:47;101507.56;;;3.59;100.00
36062;BME280;22123;52.412;20.970;2023-04-10T01:38:16;101554.00;;;3.82;100.00
36062;BME280;22123;52.412;20.970;2023-04-10T01:40:44;101522.78;;;3.57;100.00
36062;BME280;22123;52.412;20.970;2023-04-10T01:43:11;101480.38;;;3.27;100.00
36062;BME280;22123;52.412;20.970;2023-04-10T01:45:38;101531.38;;;3.48;100.00
36062;BME280;22123;52.412;20.970;2023-04-10T01:48:05;101505.09;;;3.29;100.00
36062;BME280;22123;52.412;20.970;2023-04-10T01:50:32;101520.47;;;3.38;100.00
36062;BME280;22123;52.412;20.970;2023-04-10T01:52:59;101473.97;;;3.02;100.00
36062;BME280;22123;52.412;20.970;2023-04-10T01:55:26;101545.38;;;3.37;100.00
36062;BME280;22123;52.412;20.970;2023-04-10T01:57:53;101516.06;;;3.10;100.00
36062;BME280;22123;52.412;20.970;2023-04-10T02:00:19;101532.69;;;3.13;100.00
36062;BME280;22123;52.412;20.970;2023-04-10T02:02:45;101532.41;;;3.04;100.00
36062;BME280;22123;52.412;20.970;2023-04-10T02:05:11;101526.06;;;2.92;100.00
36062;BME280;22123;52.412;20.970;2023-04-10T02:07:43;101559.69;;;3.07;100.00
36062;BME280;22123;52.412;20.970;2023-04-10T02:10:33;101523.91;;;2.84;100.00
36062;BME280;22123;52.412;20.970;2023-04-10T02:13:06;101560.00;;;3.03;100.00
36062;BME280;22123;52.412;20.970;2023-04-10T02:15:33;101526.75;;;2.81;100.00
36062;BME280;22123;52.412;20.970;2023-04-10T02:18:01;101438.94;;;2.25;100.00
36062;BME280;22123;52.412;20.970;2023-04-10T02:20:29;101412.91;;;2.01;100.00
36062;BME280;22123;52.412;20.970;2023-04-10T02:22:55;101519.63;;;2.67;100.00
36062;BME280;22123;52.412;20.970;2023-04-10T02:25:21;101557.34;;;2.88;100.00
36062;BME280;22123;52.412;20.970;2023-04-10T02:27:47;101550.78;;;2.80;100.00
36062;BME280;22123;52.412;20.970;2023-04-10T02:30:13;101528.72;;;2.63;100.00
36062;BME280;22123;52.412;20.970;2023-04-10T02:32:39;101433.22;;;2.02;100.00
36062;BME280;22123;52.412;20.970;2023-04-10T02:35:05;101554.28;;;2.66;100.00
36062;BME280;22123;52.412;20.970;2023-04-10T02:37:31;101451.91;;;2.01;100.00
36062;BME280;22123;52.412;20.970;2023-04-10T02:39:57;101565.66;;;2.68;100.00
36062;BME280;22123;52.412;20.970;2023-04-10T02:42:22;101517.31;;;2.32;100.00
36062;BME280;22123;52.412;20.970;2023-04-10T02:44:48;101455.56;;;1.84;100.00
36062;BME280;22123;52.412;20.970;2023-04-10T02:47:14;101452.91;;;1.84;100.00
36062;BME280;22123;52.412;20.970;2023-04-10T02:49:40;101565.19;;;2.47;100.00
36062;BME280;22123;52.412;20.970;2023-04-10T02:52:06;101494.50;;;1.99;100.00
36062;BME280;22123;52.412;20.970;2023-04-10T02:54:32;101511.31;;;2.14;100.00
36062;BME280;22123;52.412;20.970;2023-04-10T02:56:58;101560.41;;;2.37;100.00
36062;BME280;22123;52.412;20.970;2023-04-10T02:59:24;101466.56;;;1.78;100.00
36062;BME280;22123;52.412;20.970;2023-04-10T03:01:50;101512.06;;;2.02;100.00
36062;BME280;22123;52.412;20.970;2023-04-10T03:04:16;101505.88;;;2.01;100.00
36062;BME280;22123;52.412;20.970;2023-04-10T03:06:42;101481.63;;;1.77;100.00
36062;BME280;22123;52.412;20.970;2023-04-10T03:09:08;101538.34;;;2.06;100.00
36062;BME280;22123;52.412;20.970;2023-04-10T03:11:34;101525.53;;;1.99;100.00
36062;BME280;22123;52.412;20.970;2023-04-10T03:14:00;101530.22;;;1.94;100.00
36062;BME280;22123;52.412;20.970;2023-04-10T03:16:26;101551.63;;;2.06;100.00
36062;BME280;22123;52.412;20.970;2023-04-10T03:18:52;101546.41;;;2.05;100.00
36062;BME280;22123;52.412;20.970;2023-04-10T03:21:18;101499.25;;;1.78;100.00
36062;BME280;22123;52.412;20.970;2023-04-10T03:23:44;101498.50;;;1.76;100.00
36062;BME280;22123;52.412;20.970;2023-04-10T03:26:10;101522.81;;;1.84;100.00
36062;BME280;22123;52.412;20.970;2023-04-10T03:28:36;101559.59;;;2.06;100.00
36062;BME280;22123;52.412;20.970;2023-04-10T03:31:02;101494.78;;;1.64;100.00
36062;BME280;22123;52.412;20.970;2023-04-10T03:33:28;101525.16;;;1.74;100.00
36062;BME280;22123;52.412;20.970;2023-04-10T03:35:54;101518.47;;;1.67;100.00
36062;BME280;22123;52.412;20.970;2023-04-10T03:38:20;101525.50;;;1.68;100.00
36062;BME280;22123;52.412;20.970;2023-04-10T03:40:46;101525.94;;;1.61;100.00
36062;BME280;22123;52.412;20.970;2023-04-10T03:43:12;101561.94;;;1.81;100.00
36062;BME280;22123;52.412;20.970;2023-04-10T03:45:37;101520.22;;;1.52;100.00
36062;BME280;22123;52.412;20.970;2023-04-10T03:48:03;101520.22;;;1.52;100.00
36062;BME280;22123;52.412;20.970;2023-04-10T03:50:29;101560.25;;;1.80;100.00
36062;BME280;22123;52.412;20.970;2023-04-10T03:52:55;101557.44;;;1.83;100.00
36062;BME280;22123;52.412;20.970;2023-04-10T03:55:21;101500.94;;;1.49;100.00
36062;BME280;22123;52.412;20.970;2023-04-10T03:57:47;101538.50;;;1.73;100.00
36062;BME280;22123;52.412;20.970;2023-04-10T04:00:14;101532.44;;;1.71;100.00
36062;BME280;22123;52.412;20.970;2023-04-10T04:02:40;101567.59;;;1.90;100.00
36062;BME280;22123;52.412;20.970;2023-04-10T04:05:06;101535.66;;;1.76;100.00
36062;BME280;22123;52.412;20.970;2023-04-10T04:07:32;101558.09;;;1.86;100.00
36062;BME280;22123;52.412;20.970;2023-04-10T04:09:58;101541.06;;;1.74;100.00
36062;BME280;22123;52.412;20.970;2023-04-10T04:12:23;101576.06;;;1.97;100.00
36062;BME280;22123;52.412;20.970;2023-04-10T04:14:49;101525.31;;;1.71;100.00
36062;BME280;22123;52.412;20.970;2023-04-10T04:17:15;101571.44;;;2.01;100.00
36062;BME280;22123;52.412;20.970;2023-04-10T04:19:41;101568.78;;;2.01;100.00
36062;BME280;22123;52.412;20.970;2023-04-10T04:22:07;101547.28;;;1.89;100.00
36062;BME280;22123;52.412;20.970;2023-04-10T04:24:33;101546.34;;;1.90;100.00
36062;BME280;22123;52.412;20.970;2023-04-10T04:26:59;101558.22;;;1.99;100.00
36062;BME280;22123;52.412;20.970;2023-04-10T04:29:25;101533.16;;;1.89;100.00
36062;BME280;22123;52.412;20.970;2023-04-10T04:31:50;101546.50;;;2.03;100.00
36062;BME280;22123;52.412;20.970;2023-04-10T04:34:16;101546.41;;;2.05;100.00
36062;BME280;22123;52.412;20.970;2023-04-10T04:36:42;101555.34;;;2.18;100.00
36062;BME280;22123;52.412;20.970;2023-04-10T04:39:08;101566.78;;;2.35;100.00
36062;BME280;22123;52.412;20.970;2023-04-10T04:41:34;101574.28;;;2.42;100.00
36062;BME280;22123;52.412;20.970;2023-04-10T04:44:00;101591.78;;;2.61;100.00
36062;BME280;22123;52.412;20.970;2023-04-10T04:46:27;101595.31;;;2.61;100.00
36062;BME280;22123;52.412;20.970;2023-04-10T04:48:53;101558.75;;;2.51;100.00
36062;BME280;22123;52.412;20.970;2023-04-10T04:51:18;101598.66;;;2.80;100.00
36062;BME280;22123;52.412;20.970;2023-04-10T04:53:44;101609.75;;;2.86;100.00
36062;BME280;22123;52.412;20.970;2023-04-10T04:56:10;101595.63;;;2.86;100.00
36062;BME280;22123;52.412;20.970;2023-04-10T04:58:36;101542.13;;;2.61;100.00
36062;BME280;22123;52.412;20.970;2023-04-10T05:01:02;101563.78;;;2.84;100.00
36062;BME280;22123;52.412;20.970;2023-04-10T05:03:28;101576.69;;;3.05;100.00
36062;BME280;22123;52.412;20.970;2023-04-10T05:05:55;101571.47;;;3.18;100.00
36062;BME280;22123;52.412;20.970;2023-04-10T05:08:20;101581.38;;;3.43;100.00
36062;BME280;22123;52.412;20.970;2023-04-10T05:10:47;101565.28;;;3.59;100.00
36062;BME280;22123;52.412;20.970;2023-04-10T05:13:13;101585.13;;;3.95;100.00
36062;BME280;22123;52.412;20.970;2023-04-10T05:15:38;101584.03;;;4.25;100.00
36062;BME280;22123;52.412;20.970;2023-04-10T05:18:04;101590.88;;;4.55;100.00
36062;BME280;22123;52.412;20.970;2023-04-10T05:20:33;101602.75;;;4.89;100.00
36062;BME280;22123;52.412;20.970;2023-04-10T05:22:59;101578.50;;;4.92;100.00
36062;BME280;22123;52.412;20.970;2023-04-10T05:25:25;101591.28;;;5.26;100.00
36062;BME280;22123;52.412;20.970;2023-04-10T05:27:51;101615.44;;;5.61;100.00
36062;BME280;22123;52.412;20.970;2023-04-10T05:30:17;101577.03;;;5.75;100.00
36062;BME280;22123;52.412;20.970;2023-04-10T05:32:42;101605.19;;;6.16;100.00
36062;BME280;22123;52.412;20.970;2023-04-10T05:35:08;101579.72;;;6.35;100.00
36062;BME280;22123;52.412;20.970;2023-04-10T05:37:34;101587.81;;;6.69;100.00
36062;BME280;22123;52.412;20.970;2023-04-10T05:40:00;101571.06;;;6.78;100.00
36062;BME280;22123;52.412;20.970;2023-04-10T05:42:26;101592.59;;;6.99;100.00
36062;BME280;22123;52.412;20.970;2023-04-10T05:44:52;101614.84;;;7.11;100.00
36062;BME280;22123;52.412;20.970;2023-04-10T05:47:18;101579.94;;;6.90;100.00
36062;BME280;22123;52.412;20.970;2023-04-10T05:49:44;101590.28;;;6.94;100.00
36062;BME280;22123;52.412;20.970;2023-04-10T05:52:09;101601.00;;;7.06;100.00
36062;BME280;22123;52.412;20.970;2023-04-10T05:54:35;101604.41;;;7.08;100.00
36062;BME280;22123;52.412;20.970;2023-04-10T05:57:01;101596.75;;;7.14;100.00
36062;BME280;22123;52.412;20.970;2023-04-10T05:59:27;101574.69;;;7.22;100.00
36062;BME280;22123;52.412;20.970;2023-04-10T06:01:55;101598.03;;;7.43;100.00
36062;BME280;22123;52.412;20.970;2023-04-10T06:04:21;101574.81;;;7.43;100.00
36062;BME280;22123;52.412;20.970;2023-04-10T06:06:47;101584.84;;;7.74;100.00
36062;BME280;22123;52.412;20.970;2023-04-10T06:09:13;101584.75;;;7.96;100.00
36062;BME280;22123;52.412;20.970;2023-04-10T06:11:39;101563.06;;;7.99;100.00
36062;BME280;22123;52.412;20.970;2023-04-10T06:14:05;101587.44;;;8.29;100.00
36062;BME280;22123;52.412;20.970;2023-04-10T06:16:31;101582.34;;;8.47;100.00
36062;BME280;22123;52.412;20.970;2023-04-10T06:18:58;101582.16;;;8.60;100.00
36062;BME280;22123;52.412;20.970;2023-04-10T06:21:24;101587.66;;;8.79;100.00
36062;BME280;22123;52.412;20.970;2023-04-10T06:23:49;101565.88;;;8.82;100.00
36062;BME280;22123;52.412;20.970;2023-04-10T06:26:15;101606.50;;;9.30;100.00
36062;BME280;22123;52.412;20.970;2023-04-10T06:28:41;101587.69;;;9.30;100.00
36062;BME280;22123;52.412;20.970;2023-04-10T06:31:07;101602.47;;;9.45;100.00
36062;BME280;22123;52.412;20.970;2023-04-10T06:33:33;101605.75;;;9.49;100.00
36062;BME280;22123;52.412;20.970;2023-04-10T06:35:59;101592.41;;;9.37;100.00
36062;BME280;22123;52.412;20.970;2023-04-10T06:38:25;101587.16;;;9.46;100.00
36062;BME280;22123;52.412;20.970;2023-04-10T06:40:51;101607.44;;;9.60;100.00
36062;BME280;22123;52.412;20.970;2023-04-10T06:43:17;101604.06;;;9.57;100.00
36062;BME280;22123;52.412;20.970;2023-04-10T06:45:43;101632.84;;;9.77;100.00
36062;BME280;22123;52.412;20.970;2023-04-10T06:48:08;101590.31;;;9.51;100.00
36062;BME280;22123;52.412;20.970;2023-04-10T06:50:34;101589.75;;;9.57;100.00
36062;BME280;22123;52.412;20.970;2023-04-10T06:53:00;101592.72;;;9.54;100.00
36062;BME280;22123;52.412;20.970;2023-04-10T06:55:26;101639.06;;;9.77;100.00
36062;BME280;22123;52.412;20.970;2023-04-10T06:57:52;101633.38;;;9.80;100.00
36062;BME280;22123;52.412;20.970;2023-04-10T07:00:18;101607.50;;;9.89;100.00
36062;BME280;22123;52.412;20.970;2023-04-10T07:02:44;101614.88;;;10.26;100.00
36062;BME280;22123;52.412;20.970;2023-04-10T07:05:10;101631.13;;;10.83;100.00
36062;BME280;22123;52.412;20.970;2023-04-10T07:07:36;101623.97;;;11.11;100.00
36062;BME280;22123;52.412;20.970;2023-04-10T07:10:02;101625.91;;;11.19;100.00
36062;BME280;22123;52.412;20.970;2023-04-10T07:12:28;101605.69;;;11.05;100.00
36062;BME280;22123;52.412;20.970;2023-04-10T07:14:54;101616.06;;;11.00;100.00
36062;BME280;22123;52.412;20.970;2023-04-10T07:17:20;101640.00;;;11.03;100.00
36062;BME280;22123;52.412;20.970;2023-04-10T07:19:46;101651.06;;;11.10;100.00
36062;BME280;22123;52.412;20.970;2023-04-10T07:22:12;101625.44;;;10.96;100.00
36062;BME280;22123;52.412;20.970;2023-04-10T07:24:38;101640.81;;;11.23;100.00
36062;BME280;22123;52.412;20.970;2023-04-10T07:27:04;101629.16;;;11.33;100.00
36062;BME280;22123;52.412;20.970;2023-04-10T07:29:30;101643.28;;;11.44;100.00
36062;BME280;22123;52.412;20.970;2023-04-10T07:31:56;101610.84;;;11.26;100.00
36062;BME280;22123;52.412;20.970;2023-04-10T07:34:21;101621.13;;;11.41;100.00
36062;BME280;22123;52.412;20.970;2023-04-10T07:36:47;101644.56;;;11.68;100.00
36062;BME280;22123;52.412;20.970;2023-04-10T07:39:13;101650.97;;;11.95;100.00
36062;BME280;22123;52.412;20.970;2023-04-10T07:41:39;101647.81;;;11.99;100.00
36062;BME280;22123;52.412;20.970;2023-04-10T07:44:05;101630.81;;;11.89;100.00
36062;BME280;22123;52.412;20.970;2023-04-10T07:46:31;101619.53;;;11.76;100.00
36062;BME280;22123;52.412;20.970;2023-04-10T07:48:57;101625.41;;;11.89;100.00
36062;BME280;22123;52.412;20.970;2023-04-10T07:51:23;101643.13;;;12.20;100.00
36062;BME280;22123;52.412;20.970;2023-04-10T07:53:48;101604.88;;;12.24;100.00
36062;BME280;22123;52.412;20.970;2023-04-10T07:56:18;101659.50;;;12.80;100.00
36062;BME280;22123;52.412;20.970;2023-04-10T07:58:45;101630.78;;;12.79;100.00
36062;BME280;22123;52.412;20.970;2023-04-10T08:01:11;101641.66;;;12.87;100.00
36062;BME280;22123;52.412;20.970;2023-04-10T08:03:38;101662.94;;;13.17;100.00
36062;BME280;22123;52.412;20.970;2023-04-10T08:06:04;101616.72;;;13.02;100.00
36062;BME280;22123;52.412;20.970;2023-04-10T08:08:29;101616.19;;;12.98;100.00
36062;BME280;22123;52.412;20.970;2023-04-10T08:10:55;101634.44;;;12.96;100.00
36062;BME280;22123;52.412;20.970;2023-04-10T08:13:21;101605.56;;;12.97;100.00
36062;BME280;22123;52.412;20.970;2023-04-10T08:15:47;101609.44;;;13.29;100.00
36062;BME280;22123;52.412;20.970;2023-04-10T08:18:13;101623.13;;;13.70;100.00
36062;BME280;22123;52.412;20.970;2023-04-10T08:20:39;101593.03;;;13.65;100.00
36062;BME280;22123;52.412;20.970;2023-04-10T08:23:05;101616.75;;;13.96;100.00
36062;BME280;22123;52.412;20.970;2023-04-10T08:25:31;101601.06;;;14.24;100.00
36062;BME280;22123;52.412;20.970;2023-04-10T08:27:56;101609.69;;;14.85;100.00
36062;BME280;22123;52.412;20.970;2023-04-10T08:30:22;101610.00;;;15.78;100.00
36062;BME280;22123;52.412;20.970;2023-04-10T08:32:48;101631.63;;;17.32;100.00
36062;BME280;22123;52.412;20.970;2023-04-10T08:35:14;101606.78;;;19.15;100.00
36062;BME280;22123;52.412;20.970;2023-04-10T08:37:39;101622.63;;;21.42;100.00
36062;BME280;22123;52.412;20.970;2023-04-10T08:40:06;101578.91;;;23.00;100.00
36062;BME280;22123;52.412;20.970;2023-04-10T08:42:32;101584.94;;;24.48;100.00
36062;BME280;22123;52.412;20.970;2023-04-10T08:44:57;101594.03;;;25.90;100.00
36062;BME280;22123;52.412;20.970;2023-04-10T08:47:26;101593.00;;;27.15;100.00
36062;BME280;22123;52.412;20.970;2023-04-10T08:49:57;101579.50;;;27.90;100.00
36062;BME280;22123;52.412;20.970;2023-04-10T08:52:28;101612.84;;;28.05;84.75
36062;BME280;22123;52.412;20.970;2023-04-10T08:54:55;101594.28;;;28.01;83.61
36062;BME280;22123;52.412;20.970;2023-04-10T08:57:21;101571.41;;;27.83;78.66
36062;BME280;22123;52.412;20.970;2023-04-10T08:59:49;101583.50;;;27.77;74.88
36062;BME280;22123;52.412;20.970;2023-04-10T09:02:15;101610.06;;;27.51;58.82
36062;BME280;22123;52.412;20.970;2023-04-10T09:04:49;101556.53;;;26.57;60.65
36062;BME280;22123;52.412;20.970;2023-04-10T09:07:16;101585.00;;;25.94;62.93
36062;BME280;22123;52.412;20.970;2023-04-10T09:09:42;101599.09;;;25.81;62.73
36062;BME280;22123;52.412;20.970;2023-04-10T09:12:08;101564.28;;;25.34;63.08
36062;BME280;22123;52.412;20.970;2023-04-10T09:14:35;101582.84;;;25.39;62.97
36062;BME280;22123;52.412;20.970;2023-04-10T09:17:24;101581.56;;;25.87;63.10
36062;BME280;22123;52.412;20.970;2023-04-10T09:19:52;101551.63;;;26.08;62.74
36062;BME280;22123;52.412;20.970;2023-04-10T09:22:28;101560.41;;;26.22;60.50
36062;BME280;22123;52.412;20.970;2023-04-10T09:24:54;101565.78;;;25.99;61.77
36062;BME280;22123;52.412;20.970;2023-04-10T09:27:31;101560.44;;;25.35;62.81
36062;BME280;22123;52.412;20.970;2023-04-10T09:29:58;101537.41;;;24.53;66.99
36062;BME280;22123;52.412;20.970;2023-04-10T09:32:37;101580.06;;;24.62;67.59
36062;BME280;22123;52.412;20.970;2023-04-10T09:35:04;101557.25;;;24.31;66.55
36062;BME280;22123;52.412;20.970;2023-04-10T09:37:31;101568.56;;;24.65;63.92
36062;BME280;22123;52.412;20.970;2023-04-10T09:39:57;101570.75;;;25.28;62.59
36062;BME280;22123;52.412;20.970;2023-04-10T09:44:55;101536.75;;;26.82;57.59
36062;BME280;22123;52.412;20.970;2023-04-10T09:47:21;101471.69;;;26.91;55.83
36062;BME280;22123;52.412;20.970;2023-04-10T09:49:53;101518.69;;;27.18;53.47
36062;BME280;22123;52.412;20.970;2023-04-10T09:52:38;101562.41;;;27.44;52.34
36062;BME280;22123;52.412;20.970;2023-04-10T09:55:05;101551.66;;;27.74;49.96
36062;BME280;22123;52.412;20.970;2023-04-10T09:57:33;101543.44;;;28.07;49.57
36062;BME280;22123;52.412;20.970;2023-04-10T10:00:01;101518.75;;;28.38;47.59
36062;BME280;22123;52.412;20.970;2023-04-10T10:02:29;101522.75;;;29.10;45.61
36062;BME280;22123;52.412;20.970;2023-04-10T10:04:56;101465.47;;;29.52;45.45
36062;BME280;22123;52.412;20.970;2023-04-10T10:07:23;101538.06;;;30.93;42.18
36062;BME280;22123;52.412;20.970;2023-04-10T10:09:50;101536.78;;;31.80;39.85
36062;BME280;22123;52.412;20.970;2023-04-10T10:12:28;101537.34;;;32.46;35.64
36062;BME280;22123;52.412;20.970;2023-04-10T10:15:13;101524.84;;;32.92;32.83
36062;BME280;22123;52.412;20.970;2023-04-10T10:18:20;101515.19;;;33.66;32.93
36062;BME280;22123;52.412;20.970;2023-04-10T10:20:49;101522.09;;;34.53;31.74
36062;BME280;22123;52.412;20.970;2023-04-10T10:23:16;101484.03;;;35.08;30.56
36062;BME280;22123;52.412;20.970;2023-04-10T10:25:44;101526.56;;;35.83;29.77
36062;BME280;22123;52.412;20.970;2023-04-10T10:28:12;101516.97;;;36.29;27.43
36062;BME280;22123;52.412;20.970;2023-04-10T10:30:38;101509.56;;;36.73;26.93
36062;BME280;22123;52.412;20.970;2023-04-10T10:33:06;101497.72;;;35.09;28.21
36062;BME280;22123;52.412;20.970;2023-04-10T10:35:35;101519.13;;;32.30;31.33
36062;BME280;22123;52.412;20.970;2023-04-10T10:38:03;101512.91;;;31.24;33.23
36062;BME280;22123;52.412;20.970;2023-04-10T10:40:59;101515.81;;;32.28;33.11
36062;BME280;22123;52.412;20.970;2023-04-10T10:43:36;101510.63;;;32.16;32.03
36062;BME280;22123;52.412;20.970;2023-04-10T10:46:15;101499.22;;;31.78;32.19
36062;BME280;22123;52.412;20.970;2023-04-10T10:48:57;101495.03;;;32.68;31.13
36062;BME280;22123;52.412;20.970;2023-04-10T10:51:22;101467.94;;;31.91;32.20
36062;BME280;22123;52.412;20.970;2023-04-10T10:53:48;101484.44;;;32.41;32.65
36062;BME280;22123;52.412;20.970;2023-04-10T10:58:46;101494.00;;;33.45;30.47
36062;BME280;22123;52.412;20.970;2023-04-10T11:01:13;101483.56;;;33.70;28.92
36062;BME280;22123;52.412;20.970;2023-04-10T11:03:39;101486.44;;;31.77;31.05
36062;BME280;22123;52.412;20.970;2023-04-10T11:06:06;101474.38;;;28.75;35.29
36062;BME280;22123;52.412;20.970;2023-04-10T11:11:02;101494.81;;;24.79;43.61
36062;BME280;22123;52.412;20.970;2023-04-10T11:13:29;101472.56;;;24.45;44.40
36062;BME280;22123;52.412;20.970;2023-04-10T11:15:59;101451.41;;;24.10;46.39
36062;BME280;22123;52.412;20.970;2023-04-10T11:21:16;101472.31;;;26.37;40.90
36062;BME280;22123;52.412;20.970;2023-04-10T11:28:58;101447.88;;;27.67;38.45
36062;BME280;22123;52.412;20.970;2023-04-10T11:31:25;101456.28;;;26.17;41.18
36062;BME280;22123;52.412;20.970;2023-04-10T11:34:06;101467.66;;;25.12;43.72
36062;BME280;22123;52.412;20.970;2023-04-10T11:36:42;101439.81;;;25.25;43.08
36062;BME280;22123;52.412;20.970;2023-04-10T11:39:11;101454.13;;;26.19;40.31
36062;BME280;22123;52.412;20.970;2023-04-10T11:41:38;101440.91;;;26.82;39.58
36062;BME280;22123;52.412;20.970;2023-04-10T11:44:48;101425.28;;;26.10;40.62
36062;BME280;22123;52.412;20.970;2023-04-10T11:46:54;101414.44;;;26.03;41.67
36062;BME280;22123;52.412;20.970;2023-04-10T11:49:31;101438.75;;;26.45;39.96
36062;BME280;22123;52.412;20.970;2023-04-10T11:51:57;101409.97;;;26.63;40.31
36062;BME280;22123;52.412;20.970;2023-04-10T11:54:25;101429.84;;;26.82;40.27
36062;BME280;22123;52.412;20.970;2023-04-10T11:59:23;101414.88;;;26.56;40.71
36062;BME280;22123;52.412;20.970;2023-04-10T12:01:50;101423.16;;;26.17;41.76
36062;BME280;22123;52.412;20.970;2023-04-10T12:04:17;101430.28;;;25.62;44.23
36062;BME280;22123;52.412;20.970;2023-04-10T12:06:50;101389.41;;;24.96;44.20
36062;BME280;22123;52.412;20.970;2023-04-10T12:09:18;101411.06;;;24.63;47.01
36062;BME280;22123;52.412;20.970;2023-04-10T12:12:07;101410.09;;;24.46;45.85
36062;BME280;22123;52.412;20.970;2023-04-10T12:14:41;101387.31;;;24.10;45.23
36062;BME280;22123;52.412;20.970;2023-04-10T12:17:08;101365.53;;;23.85;47.96
36062;BME280;22123;52.412;20.970;2023-04-10T12:19:35;101381.97;;;23.91;48.09
36062;BME280;22123;52.412;20.970;2023-04-10T12:22:02;101384.56;;;24.10;46.47
36062;BME280;22123;52.412;20.970;2023-04-10T12:24:45;101367.81;;;24.00;51.78
36062;BME280;22123;52.412;20.970;2023-04-10T12:27:15;101378.56;;;24.25;50.87
36062;BME280;22123;52.412;20.970;2023-04-10T12:29:41;101355.13;;;24.22;48.21
36062;BME280;22123;52.412;20.970;2023-04-10T12:32:07;101364.38;;;24.57;48.47
36062;BME280;22123;52.412;20.970;2023-04-10T12:34:35;101364.19;;;24.46;46.07
36062;BME280;22123;52.412;20.970;2023-04-10T12:37:00;101344.41;;;24.09;48.98
36062;BME280;22123;52.412;20.970;2023-04-10T12:39:26;101359.66;;;23.57;47.74
36062;BME280;22123;52.412;20.970;2023-04-10T12:41:52;101355.22;;;22.72;48.65
36062;BME280;22123;52.412;20.970;2023-04-10T12:44:18;101368.47;;;22.01;49.56
36062;BME280;22123;52.412;20.970;2023-04-10T12:46:44;101328.91;;;20.89;54.29
36062;BME280;22123;52.412;20.970;2023-04-10T12:49:17;101356.69;;;20.34;57.32
36062;BME280;22123;52.412;20.970;2023-04-10T12:51:43;101362.47;;;19.92;59.49
36062;BME280;22123;52.412;20.970;2023-04-10T12:54:10;101334.75;;;19.28;60.16
36062;BME280;22123;52.412;20.970;2023-04-10T12:56:43;101327.66;;;18.66;64.18
36062;BME280;22123;52.412;20.970;2023-04-10T12:59:09;101332.13;;;18.32;66.16
36062;BME280;22123;52.412;20.970;2023-04-10T13:01:38;101308.16;;;17.79;68.95
36062;BME280;22123;52.412;20.970;2023-04-10T13:04:05;101324.59;;;17.42;72.05